sensor_id;sensor_type;location;lat;lon;timestamp;pressure;altitude;pressure_sealevel;temperature;humidity
63190;BME280;49286;44.460;26.114;2023-07-20T00:02:06;99659.72;;;26.38;100.00
63190;BME280;49286;44.460;26.114;2023-07-20T00:04:33;99691.34;;;26.59;100.00
63190;BME280;49286;44.460;26.114;2023-07-20T00:06:58;99711.06;;;26.70;100.00
63190;BME280;49286;44.460;26.114;2023-07-20T00:09:26;99711.88;;;26.60;100.00
63190;BME280;49286;44.460;26.114;2023-07-20T00:11:52;99665.34;;;26.35;100.00
63190;BME280;49286;44.460;26.114;2023-07-20T00:14:18;99747.03;;;26.81;100.00
63190;BME280;49286;44.460;26.114;2023-07-20T00:16:45;99655.41;;;26.24;100.00
63190;BME280;49286;44.460;26.114;2023-07-20T00:19:12;99756.94;;;26.80;100.00
63190;BME280;49286;44.460;26.114;2023-07-20T00:21:37;99749.19;;;26.53;100.00
63190;BME280;49286;44.460;26.114;2023-07-20T00:24:05;99662.66;;;25.88;100.00
63190;BME280;49286;44.460;26.114;2023-07-20T00:26:31;99792.72;;;26.23;100.00
63190;BME280;49286;44.460;26.114;2023-07-20T00:28:56;99727.56;;;25.58;100.00
63190;BME280;49286;44.460;26.114;2023-07-20T00:31:22;99693.44;;;25.47;100.00
63190;BME280;49286;44.460;26.114;2023-07-20T00:33:47;99803.75;;;26.07;100.00
63190;BME280;49286;44.460;26.114;2023-07-20T00:36:13;99794.81;;;26.30;100.00
63190;BME280;49286;44.460;26.114;2023-07-20T00:38:39;99810.78;;;26.45;100.00
63190;BME280;49286;44.460;26.114;2023-07-20T00:41:04;99820.00;;;26.53;100.00
63190;BME280;49286;44.460;26.114;2023-07-20T00:43:30;99720.09;;;25.99;100.00
63190;BME280;49286;44.460;26.114;2023-07-20T00:45:56;99797.56;;;26.42;100.00
63190;BME280;49286;44.460;26.114;2023-07-20T00:48:21;99745.44;;;26.07;100.00
63190;BME280;49286;44.460;26.114;2023-07-20T00:50:47;99704.09;;;25.73;100.00
63190;BME280;49286;44.460;26.114;2023-07-20T00:53:13;99805.34;;;26.09;100.00
63190;BME280;49286;44.460;26.114;2023-07-20T00:55:39;99722.09;;;24.59;100.00
63190;BME280;49286;44.460;26.114;2023-07-20T00:58:05;99706.06;;;24.44;100.00
63190;BME280;49286;44.460;26.114;2023-07-20T01:00:30;99713.22;;;24.31;100.00
63190;BME280;49286;44.460;26.114;2023-07-20T01:02:56;99778.34;;;24.73;100.00
63190;BME280;49286;44.460;26.114;2023-07-20T01:05:28;99785.28;;;24.50;100.00
63190;BME280;49286;44.460;26.114;2023-07-20T01:08:03;99766.25;;;24.40;100.00
63190;BME280;49286;44.460;26.114;2023-07-20T01:10:43;99701.25;;;23.97;100.00
63190;BME280;49286;44.460;26.114;2023-07-20T01:13:12;99679.88;;;23.55;100.00
63190;BME280;49286;44.460;26.114;2023-07-20T01:15:39;99798.13;;;24.18;100.00
63190;BME280;49286;44.460;26.114;2023-07-20T01:18:04;99781.88;;;24.21;100.00
63190;BME280;49286;44.460;26.114;2023-07-20T01:20:31;99784.47;;;24.08;100.00
63190;BME280;49286;44.460;26.114;2023-07-20T01:23:16;99821.97;;;23.81;100.00
63190;BME280;49286;44.460;26.114;2023-07-20T01:26:16;99872.88;;;23.52;100.00
63190;BME280;49286;44.460;26.114;2023-07-20T01:31:30;99879.97;;;23.39;100.00
63190;BME280;49286;44.460;26.114;2023-07-20T01:33:58;99860.75;;;23.47;100.00
63190;BME280;49286;44.460;26.114;2023-07-20T01:36:29;99870.97;;;23.40;100.00
63190;BME280;49286;44.460;26.114;2023-07-20T01:38:56;99869.75;;;23.60;100.00
63190;BME280;49286;44.460;26.114;2023-07-20T01:41:22;99867.91;;;23.60;100.00
63190;BME280;49286;44.460;26.114;2023-07-20T01:43:48;99848.28;;;23.46;100.00
63190;BME280;49286;44.460;26.114;2023-07-20T01:46:13;99866.44;;;23.69;100.00
63190;BME280;49286;44.460;26.114;2023-07-20T01:48:39;99865.03;;;23.64;100.00
63190;BME280;49286;44.460;26.114;2023-07-20T01:51:04;99754.91;;;23.12;100.00
63190;BME280;49286;44.460;26.114;2023-07-20T01:53:30;99856.91;;;23.65;100.00
63190;BME280;49286;44.460;26.114;2023-07-20T01:55:56;99852.03;;;23.57;100.00
63190;BME280;49286;44.460;26.114;2023-07-20T01:58:22;99821.16;;;23.37;100.00
63190;BME280;49286;44.460;26.114;2023-07-20T02:00:48;99863.78;;;23.69;100.00
63190;BME280;49286;44.460;26.114;2023-07-20T02:03:14;99778.13;;;23.12;100.00
63190;BME280;49286;44.460;26.114;2023-07-20T02:05:42;99781.84;;;23.09;100.00
63190;BME280;49286;44.460;26.114;2023-07-20T02:08:07;99812.84;;;23.42;100.00
63190;BME280;49286;44.460;26.114;2023-07-20T02:10:33;99801.63;;;23.35;100.00
63190;BME280;49286;44.460;26.114;2023-07-20T02:12:58;99707.34;;;22.59;100.00
63190;BME280;49286;44.460;26.114;2023-07-20T02:15:24;99701.63;;;22.50;100.00
63190;BME280;49286;44.460;26.114;2023-07-20T02:17:49;99773.78;;;22.95;100.00
63190;BME280;49286;44.460;26.114;2023-07-20T02:20:15;99747.44;;;23.03;100.00
63190;BME280;49286;44.460;26.114;2023-07-20T02:22:40;99679.84;;;22.71;100.00
63190;BME280;49286;44.460;26.114;2023-07-20T02:25:07;99709.16;;;22.58;100.00
63190;BME280;49286;44.460;26.114;2023-07-20T02:27:34;99770.09;;;23.12;100.00
63190;BME280;49286;44.460;26.114;2023-07-20T02:29:59;99788.34;;;23.34;100.00
63190;BME280;49286;44.460;26.114;2023-07-20T02:32:25;99797.63;;;23.43;100.00
63190;BME280;49286;44.460;26.114;2023-07-20T02:34:50;99788.84;;;23.26;100.00
63190;BME280;49286;44.460;26.114;2023-07-20T02:37:16;99686.16;;;22.70;100.00
63190;BME280;49286;44.460;26.114;2023-07-20T02:39:42;99824.13;;;23.33;100.00
63190;BME280;49286;44.460;26.114;2023-07-20T02:42:07;99715.00;;;22.65;100.00
63190;BME280;49286;44.460;26.114;2023-07-20T02:44:33;99795.53;;;23.05;100.00
63190;BME280;49286;44.460;26.114;2023-07-20T02:46:58;99797.22;;;23.06;100.00
63190;BME280;49286;44.460;26.114;2023-07-20T02:49:24;99782.50;;;23.13;100.00
63190;BME280;49286;44.460;26.114;2023-07-20T02:51:49;99783.53;;;22.96;100.00
63190;BME280;49286;44.460;26.114;2023-07-20T02:54:15;99757.91;;;22.77;100.00
63190;BME280;49286;44.460;26.114;2023-07-20T02:56:40;99858.44;;;23.26;100.00
63190;BME280;49286;44.460;26.114;2023-07-20T02:59:06;99753.19;;;22.52;100.00
63190;BME280;49286;44.460;26.114;2023-07-20T03:01:31;99780.13;;;22.64;100.00
63190;BME280;49286;44.460;26.114;2023-07-20T03:03:57;99768.22;;;22.69;100.00
63190;BME280;49286;44.460;26.114;2023-07-20T03:06:23;99768.88;;;22.87;100.00
63190;BME280;49286;44.460;26.114;2023-07-20T03:08:48;99832.22;;;23.31;100.00
63190;BME280;49286;44.460;26.114;2023-07-20T03:11:18;99761.56;;;22.91;100.00
63190;BME280;49286;44.460;26.114;2023-07-20T03:13:44;99842.38;;;23.26;100.00
63190;BME280;49286;44.460;26.114;2023-07-20T03:16:11;99872.09;;;23.50;100.00
63190;BME280;49286;44.460;26.114;2023-07-20T03:18:38;99895.28;;;23.51;100.00
63190;BME280;49286;44.460;26.114;2023-07-20T03:21:04;99898.03;;;23.35;100.00
63190;BME280;49286;44.460;26.114;2023-07-20T03:23:30;99894.09;;;23.41;100.00
63190;BME280;49286;44.460;26.114;2023-07-20T03:25:55;99859.84;;;23.32;100.00
63190;BME280;49286;44.460;26.114;2023-07-20T03:28:21;99887.31;;;23.50;100.00
63190;BME280;49286;44.460;26.114;2023-07-20T03:30:46;99894.41;;;23.51;100.00
63190;BME280;49286;44.460;26.114;2023-07-20T03:33:12;99868.38;;;23.38;100.00
63190;BME280;49286;44.460;26.114;2023-07-20T03:35:37;99888.50;;;23.60;100.00
63190;BME280;49286;44.460;26.114;2023-07-20T03:38:04;99895.16;;;23.53;100.00
63190;BME280;49286;44.460;26.114;2023-07-20T03:40:29;99863.22;;;23.35;100.00
63190;BME280;49286;44.460;26.114;2023-07-20T03:42:55;99875.28;;;23.43;100.00
63190;BME280;49286;44.460;26.114;2023-07-20T03:45:20;99871.63;;;23.29;100.00
63190;BME280;49286;44.460;26.114;2023-07-20T03:47:49;99856.63;;;23.27;100.00
63190;BME280;49286;44.460;26.114;2023-07-20T03:50:14;99836.66;;;23.32;100.00
63190;BME280;49286;44.460;26.114;2023-07-20T03:52:40;99735.84;;;22.74;100.00
63190;BME280;49286;44.460;26.114;2023-07-20T03:55:06;99838.94;;;23.38;100.00
63190;BME280;49286;44.460;26.114;2023-07-20T03:57:31;99822.28;;;23.33;100.00
63190;BME280;49286;44.460;26.114;2023-07-20T03:59:58;99850.59;;;23.23;100.00
63190;BME280;49286;44.460;26.114;2023-07-20T04:02:24;99847.53;;;23.29;100.00
63190;BME280;49286;44.460;26.114;2023-07-20T04:04:49;99876.53;;;23.51;100.00
63190;BME280;49286;44.460;26.114;2023-07-20T04:07:14;99873.44;;;23.29;100.00
63190;BME280;49286;44.460;26.114;2023-07-20T04:09:40;99770.97;;;22.68;100.00
63190;BME280;49286;44.460;26.114;2023-07-20T04:12:06;99780.19;;;22.92;100.00
63190;BME280;49286;44.460;26.114;2023-07-20T04:14:31;99769.78;;;22.88;100.00
63190;BME280;49286;44.460;26.114;2023-07-20T04:16:57;99842.00;;;23.47;100.00
63190;BME280;49286;44.460;26.114;2023-07-20T04:19:22;99836.34;;;23.66;100.00
63190;BME280;49286;44.460;26.114;2023-07-20T04:21:48;99867.22;;;23.86;100.00
63190;BME280;49286;44.460;26.114;2023-07-20T04:24:13;99783.75;;;23.36;100.00
63190;BME280;49286;44.460;26.114;2023-07-20T04:26:39;99829.47;;;23.76;100.00
63190;BME280;49286;44.460;26.114;2023-07-20T04:29:04;99764.84;;;23.39;100.00
63190;BME280;49286;44.460;26.114;2023-07-20T04:31:30;99783.28;;;23.44;100.00
63190;BME280;49286;44.460;26.114;2023-07-20T04:33:58;99768.63;;;23.49;100.00
63190;BME280;49286;44.460;26.114;2023-07-20T04:36:24;99782.84;;;23.64;100.00
63190;BME280;49286;44.460;26.114;2023-07-20T04:38:49;99745.91;;;23.28;100.00
63190;BME280;49286;44.460;26.114;2023-07-20T04:41:15;99836.69;;;24.02;100.00
63190;BME280;49286;44.460;26.114;2023-07-20T04:43:44;99820.66;;;24.15;100.00
63190;BME280;49286;44.460;26.114;2023-07-20T04:46:10;99720.34;;;23.51;100.00
63190;BME280;49286;44.460;26.114;2023-07-20T04:48:36;99846.03;;;24.37;100.00
63190;BME280;49286;44.460;26.114;2023-07-20T04:51:02;99751.63;;;23.92;100.00
63190;BME280;49286;44.460;26.114;2023-07-20T04:53:27;99834.38;;;24.38;100.00
63190;BME280;49286;44.460;26.114;2023-07-20T04:55:53;99813.59;;;24.14;100.00
63190;BME280;49286;44.460;26.114;2023-07-20T04:58:20;99835.50;;;24.21;100.00
63190;BME280;49286;44.460;26.114;2023-07-20T05:00:48;99821.91;;;24.37;100.00
63190;BME280;49286;44.460;26.114;2023-07-20T05:03:13;99739.78;;;23.82;100.00
63190;BME280;49286;44.460;26.114;2023-07-20T05:05:39;99855.38;;;24.44;100.00
63190;BME280;49286;44.460;26.114;2023-07-20T05:08:04;99839.28;;;24.44;100.00
63190;BME280;49286;44.460;26.114;2023-07-20T05:10:30;99811.59;;;24.31;100.00
63190;BME280;49286;44.460;26.114;2023-07-20T05:12:55;99715.06;;;23.91;100.00
63190;BME280;49286;44.460;26.114;2023-07-20T05:15:21;99821.91;;;24.37;100.00
63190;BME280;49286;44.460;26.114;2023-07-20T05:17:46;99701.53;;;23.65;100.00
63190;BME280;49286;44.460;26.114;2023-07-20T05:20:14;99807.50;;;24.52;100.00
63190;BME280;49286;44.460;26.114;2023-07-20T05:22:39;99754.84;;;24.24;100.00
63190;BME280;49286;44.460;26.114;2023-07-20T05:25:07;99776.69;;;24.58;100.00
63190;BME280;49286;44.460;26.114;2023-07-20T05:27:33;99722.44;;;24.27;100.00
63190;BME280;49286;44.460;26.114;2023-07-20T05:29:59;99819.78;;;24.95;100.00
63190;BME280;49286;44.460;26.114;2023-07-20T05:32:24;99799.63;;;24.89;100.00
63190;BME280;49286;44.460;26.114;2023-07-20T05:34:52;99804.34;;;25.11;100.00
63190;BME280;49286;44.460;26.114;2023-07-20T05:37:18;99803.66;;;25.59;100.00
63190;BME280;49286;44.460;26.114;2023-07-20T05:39:43;99704.75;;;25.14;100.00
63190;BME280;49286;44.460;26.114;2023-07-20T05:42:09;99805.63;;;25.94;100.00
63190;BME280;49286;44.460;26.114;2023-07-20T05:44:34;99741.91;;;25.33;100.00
63190;BME280;49286;44.460;26.114;2023-07-20T05:47:00;99700.09;;;24.92;100.00
63190;BME280;49286;44.460;26.114;2023-07-20T05:49:25;99779.09;;;25.52;100.00
63190;BME280;49286;44.460;26.114;2023-07-20T05:51:50;99697.50;;;24.91;100.00
63190;BME280;49286;44.460;26.114;2023-07-20T05:54:16;99784.69;;;25.36;100.00
63190;BME280;49286;44.460;26.114;2023-07-20T05:56:41;99801.91;;;25.34;100.00
63190;BME280;49286;44.460;26.114;2023-07-20T05:59:07;99705.81;;;24.75;100.00
63190;BME280;49286;44.460;26.114;2023-07-20T06:01:32;99797.97;;;25.12;100.00
63190;BME280;49286;44.460;26.114;2023-07-20T06:03:58;99741.94;;;24.95;100.00
63190;BME280;49286;44.460;26.114;2023-07-20T06:06:23;99800.47;;;25.28;100.00
63190;BME280;49286;44.460;26.114;2023-07-20T06:08:49;99786.09;;;25.29;100.00
63190;BME280;49286;44.460;26.114;2023-07-20T06:11:14;99792.56;;;25.76;100.00
63190;BME280;49286;44.460;26.114;2023-07-20T06:13:40;99728.09;;;25.63;100.00
63190;BME280;49286;44.460;26.114;2023-07-20T06:16:05;99812.63;;;26.80;100.00
63190;BME280;49286;44.460;26.114;2023-07-20T06:18:31;99809.88;;;27.15;100.00
63190;BME280;49286;44.460;26.114;2023-07-20T06:20:56;99834.16;;;27.26;100.00
63190;BME280;49286;44.460;26.114;2023-07-20T06:23:22;99652.09;;;26.09;100.00
63190;BME280;49286;44.460;26.114;2023-07-20T06:25:48;99738.75;;;26.95;100.00
63190;BME280;49286;44.460;26.114;2023-07-20T06:28:14;99773.56;;;27.21;100.00
63190;BME280;49286;44.460;26.114;2023-07-20T06:30:39;99815.38;;;26.91;100.00
63190;BME280;49286;44.460;26.114;2023-07-20T06:33:05;99807.25;;;27.49;100.00
63190;BME280;49286;44.460;26.114;2023-07-20T06:35:30;99731.03;;;27.02;100.00
63190;BME280;49286;44.460;26.114;2023-07-20T06:37:56;99778.63;;;28.03;100.00
63190;BME280;49286;44.460;26.114;2023-07-20T06:40:22;99819.72;;;27.84;100.00
63190;BME280;49286;44.460;26.114;2023-07-20T06:42:48;99799.75;;;27.52;100.00
63190;BME280;49286;44.460;26.114;2023-07-20T06:45:13;99806.97;;;27.29;100.00
63190;BME280;49286;44.460;26.114;2023-07-20T06:47:39;99745.72;;;26.86;100.00
63190;BME280;49286;44.460;26.114;2023-07-20T06:50:09;99829.81;;;27.01;100.00
63190;BME280;49286;44.460;26.114;2023-07-20T06:52:34;99706.84;;;26.44;100.00
63190;BME280;49286;44.460;26.114;2023-07-20T06:55:00;99739.69;;;26.60;100.00
63190;BME280;49286;44.460;26.114;2023-07-20T06:57:25;99754.56;;;27.22;100.00
63190;BME280;49286;44.460;26.114;2023-07-20T06:59:51;99726.53;;;27.36;100.00
63190;BME280;49286;44.460;26.114;2023-07-20T07:02:17;99820.03;;;28.45;100.00
63190;BME280;49286;44.460;26.114;2023-07-20T07:04:42;99750.84;;;27.68;100.00
63190;BME280;49286;44.460;26.114;2023-07-20T07:07:08;99756.41;;;27.22;100.00
63190;BME280;49286;44.460;26.114;2023-07-20T07:09:34;99846.63;;;27.16;100.00
63190;BME280;49286;44.460;26.114;2023-07-20T07:12:00;99845.34;;;27.44;100.00
63190;BME280;49286;44.460;26.114;2023-07-20T07:14:26;99854.28;;;27.56;100.00
63190;BME280;49286;44.460;26.114;2023-07-20T07:16:52;99806.09;;;27.17;100.00
63190;BME280;49286;44.460;26.114;2023-07-20T07:19:18;99761.06;;;27.53;100.00
63190;BME280;49286;44.460;26.114;2023-07-20T07:21:43;99763.44;;;27.79;100.00
63190;BME280;49286;44.460;26.114;2023-07-20T07:24:09;99823.75;;;27.89;100.00
63190;BME280;49286;44.460;26.114;2023-07-20T07:26:36;99757.00;;;27.25;100.00
63190;BME280;49286;44.460;26.114;2023-07-20T07:29:01;99760.69;;;27.24;100.00
63190;BME280;49286;44.460;26.114;2023-07-20T07:31:29;99768.63;;;27.14;100.00
63190;BME280;49286;44.460;26.114;2023-07-20T07:33:55;99804.66;;;27.36;100.00
63190;BME280;49286;44.460;26.114;2023-07-20T07:36:21;99863.09;;;28.03;100.00
63190;BME280;49286;44.460;26.114;2023-07-20T07:38:46;99770.94;;;27.53;100.00
63190;BME280;49286;44.460;26.114;2023-07-20T07:41:11;99834.06;;;28.28;100.00
63190;BME280;49286;44.460;26.114;2023-07-20T07:43:37;99818.53;;;28.20;100.00
63190;BME280;49286;44.460;26.114;2023-07-20T07:46:04;99747.59;;;27.97;100.00
63190;BME280;49286;44.460;26.114;2023-07-20T07:48:29;99853.66;;;28.52;100.00
63190;BME280;49286;44.460;26.114;2023-07-20T07:50:55;99770.19;;;27.96;100.00
63190;BME280;49286;44.460;26.114;2023-07-20T07:53:20;99845.84;;;28.91;100.00
63190;BME280;49286;44.460;26.114;2023-07-20T07:55:49;99854.69;;;29.14;100.00
63190;BME280;49286;44.460;26.114;2023-07-20T07:58:14;99849.81;;;28.87;100.00
63190;BME280;49286;44.460;26.114;2023-07-20T08:00:39;99853.00;;;29.13;100.00
63190;BME280;49286;44.460;26.114;2023-07-20T08:03:08;99866.16;;;29.28;100.00
63190;BME280;49286;44.460;26.114;2023-07-20T08:05:34;99857.94;;;29.29;100.00
63190;BME280;49286;44.460;26.114;2023-07-20T08:08:01;99836.59;;;29.36;100.00
63190;BME280;49286;44.460;26.114;2023-07-20T08:10:26;99806.34;;;29.42;100.00
63190;BME280;49286;44.460;26.114;2023-07-20T08:12:52;99770.47;;;29.40;100.00
63190;BME280;49286;44.460;26.114;2023-07-20T08:15:17;99739.53;;;29.23;100.00
63190;BME280;49286;44.460;26.114;2023-07-20T08:17:42;99844.88;;;30.15;100.00
63190;BME280;49286;44.460;26.114;2023-07-20T08:20:10;99838.06;;;30.21;100.00
63190;BME280;49286;44.460;26.114;2023-07-20T08:22:38;99814.59;;;30.31;100.00
63190;BME280;49286;44.460;26.114;2023-07-20T08:25:05;99827.56;;;30.27;100.00
63190;BME280;49286;44.460;26.114;2023-07-20T08:27:31;99818.69;;;30.64;100.00
63190;BME280;49286;44.460;26.114;2023-07-20T08:29:56;99839.66;;;30.91;98.93
63190;BME280;49286;44.460;26.114;2023-07-20T08:32:22;99756.84;;;30.21;98.78
63190;BME280;49286;44.460;26.114;2023-07-20T08:34:47;99743.41;;;29.71;100.00
63190;BME280;49286;44.460;26.114;2023-07-20T08:37:13;99747.00;;;30.10;98.86
63190;BME280;49286;44.460;26.114;2023-07-20T08:39:38;99840.94;;;30.78;100.00
63190;BME280;49286;44.460;26.114;2023-07-20T08:42:04;99817.22;;;31.09;96.10
63190;BME280;49286;44.460;26.114;2023-07-20T08:44:35;99828.16;;;31.27;97.82
63190;BME280;49286;44.460;26.114;2023-07-20T08:47:02;99830.91;;;31.17;98.61
63190;BME280;49286;44.460;26.114;2023-07-20T08:49:31;99845.91;;;31.21;89.41
63190;BME280;49286;44.460;26.114;2023-07-20T08:51:58;99745.47;;;30.46;96.54
63190;BME280;49286;44.460;26.114;2023-07-20T08:54:25;99827.19;;;31.65;99.53
63190;BME280;49286;44.460;26.114;2023-07-20T08:56:54;99828.47;;;32.16;92.51
63190;BME280;49286;44.460;26.114;2023-07-20T08:59:22;99805.44;;;31.75;88.36
63190;BME280;49286;44.460;26.114;2023-07-20T09:01:49;99762.06;;;31.47;98.02
63190;BME280;49286;44.460;26.114;2023-07-20T09:04:14;99753.06;;;31.92;90.21
63190;BME280;49286;44.460;26.114;2023-07-20T09:06:41;99809.50;;;31.24;88.70
63190;BME280;49286;44.460;26.114;2023-07-20T09:09:07;99805.53;;;32.65;86.97
63190;BME280;49286;44.460;26.114;2023-07-20T09:11:32;99739.50;;;32.64;80.86
63190;BME280;49286;44.460;26.114;2023-07-20T09:14:06;99722.16;;;32.65;78.49
63190;BME280;49286;44.460;26.114;2023-07-20T09:16:32;99724.88;;;32.65;73.72
63190;BME280;49286;44.460;26.114;2023-07-20T09:18:58;99734.75;;;32.48;77.09
63190;BME280;49286;44.460;26.114;2023-07-20T09:21:29;99776.53;;;33.52;72.79
63190;BME280;49286;44.460;26.114;2023-07-20T09:23:56;99802.56;;;33.54;71.35
63190;BME280;49286;44.460;26.114;2023-07-20T09:26:22;99798.78;;;33.47;69.49
63190;BME280;49286;44.460;26.114;2023-07-20T09:28:50;99802.03;;;32.98;67.29
63190;BME280;49286;44.460;26.114;2023-07-20T09:31:18;99732.03;;;33.18;67.33
63190;BME280;49286;44.460;26.114;2023-07-20T09:33:45;99730.75;;;33.81;66.21
63190;BME280;49286;44.460;26.114;2023-07-20T09:36:10;99707.06;;;33.31;65.05
63190;BME280;49286;44.460;26.114;2023-07-20T09:38:37;99761.47;;;34.33;60.42
63190;BME280;49286;44.460;26.114;2023-07-20T09:41:05;99787.50;;;34.93;59.59
63190;BME280;49286;44.460;26.114;2023-07-20T09:43:34;99707.78;;;34.74;57.14
63190;BME280;49286;44.460;26.114;2023-07-20T09:46:00;99777.94;;;35.05;52.89
63190;BME280;49286;44.460;26.114;2023-07-20T09:48:26;99748.50;;;34.59;54.78
63190;BME280;49286;44.460;26.114;2023-07-20T09:50:53;99774.66;;;35.26;56.07
63190;BME280;49286;44.460;26.114;2023-07-20T09:53:19;99693.91;;;35.00;54.28
63190;BME280;49286;44.460;26.114;2023-07-20T09:55:48;99701.31;;;34.51;52.54
63190;BME280;49286;44.460;26.114;2023-07-20T09:58:15;99771.44;;;35.22;52.76
63190;BME280;49286;44.460;26.114;2023-07-20T10:00:42;99767.59;;;34.76;52.42
63190;BME280;49286;44.460;26.114;2023-07-20T10:03:11;99762.75;;;35.58;51.10
63190;BME280;49286;44.460;26.114;2023-07-20T10:05:43;99746.47;;;34.78;51.61
63190;BME280;49286;44.460;26.114;2023-07-20T10:08:11;99757.88;;;35.45;52.99
63190;BME280;49286;44.460;26.114;2023-07-20T10:10:38;99742.75;;;35.74;49.65
63190;BME280;49286;44.460;26.114;2023-07-20T10:13:08;99694.75;;;35.80;49.61
63190;BME280;49286;44.460;26.114;2023-07-20T10:15:46;99734.97;;;35.63;49.82
63190;BME280;49286;44.460;26.114;2023-07-20T10:18:27;99667.81;;;36.00;49.12
63190;BME280;49286;44.460;26.114;2023-07-20T10:20:55;99644.47;;;35.97;47.82
63190;BME280;49286;44.460;26.114;2023-07-20T10:23:22;99665.50;;;36.34;46.85
63190;BME280;49286;44.460;26.114;2023-07-20T10:25:48;99709.44;;;36.86;46.92
63190;BME280;49286;44.460;26.114;2023-07-20T10:28:15;99620.81;;;35.58;46.80
63190;BME280;49286;44.460;26.114;2023-07-20T10:30:41;99697.25;;;36.35;46.66
63190;BME280;49286;44.460;26.114;2023-07-20T10:33:08;99675.75;;;35.63;45.41
63190;BME280;49286;44.460;26.114;2023-07-20T10:35:56;99711.50;;;35.45;47.49
63190;BME280;49286;44.460;26.114;2023-07-20T10:41:19;99670.69;;;36.29;45.86
63190;BME280;49286;44.460;26.114;2023-07-20T10:43:46;99637.94;;;35.98;45.24
63190;BME280;49286;44.460;26.114;2023-07-20T10:46:12;99702.72;;;36.12;45.66
63190;BME280;49286;44.460;26.114;2023-07-20T10:49:01;99694.38;;;36.14;46.23
63190;BME280;49286;44.460;26.114;2023-07-20T10:51:30;99611.28;;;35.85;45.42
63190;BME280;49286;44.460;26.114;2023-07-20T10:53:56;99682.03;;;35.72;46.66
63190;BME280;49286;44.460;26.114;2023-07-20T10:56:26;99628.81;;;36.29;45.10
63190;BME280;49286;44.460;26.114;2023-07-20T10:58:59;99617.47;;;36.70;43.97
63190;BME280;49286;44.460;26.114;2023-07-20T11:01:35;99603.38;;;36.28;44.02
63190;BME280;49286;44.460;26.114;2023-07-20T11:04:08;99559.28;;;36.17;44.93
63190;BME280;49286;44.460;26.114;2023-07-20T11:06:33;99582.41;;;36.44;44.74
63190;BME280;49286;44.460;26.114;2023-07-20T11:09:07;99660.78;;;36.81;44.37
63190;BME280;49286;44.460;26.114;2023-07-20T11:11:34;99676.31;;;36.81;44.75
63190;BME280;49286;44.460;26.114;2023-07-20T11:14:06;99655.28;;;37.26;44.09
63190;BME280;49286;44.460;26.114;2023-07-20T11:16:43;99670.94;;;36.87;43.77
63190;BME280;49286;44.460;26.114;2023-07-20T11:19:22;99667.69;;;36.54;42.98
63190;BME280;49286;44.460;26.114;2023-07-20T11:21:57;99598.50;;;36.39;41.88
63190;BME280;49286;44.460;26.114;2023-07-20T11:24:24;99647.44;;;37.23;41.66
63190;BME280;49286;44.460;26.114;2023-07-20T11:29:17;99589.03;;;35.74;43.86
63190;BME280;49286;44.460;26.114;2023-07-20T11:31:44;99635.72;;;35.79;44.20
63190;BME280;49286;44.460;26.114;2023-07-20T11:34:15;99641.25;;;36.31;45.19
63190;BME280;49286;44.460;26.114;2023-07-20T11:36:42;99451.63;;;35.20;43.61
63190;BME280;49286;44.460;26.114;2023-07-20T11:39:18;99567.34;;;35.49;43.75
63190;BME280;49286;44.460;26.114;2023-07-20T11:41:59;99566.69;;;35.24;45.23
63190;BME280;49286;44.460;26.114;2023-07-20T11:44:28;99638.84;;;36.37;44.11
63190;BME280;49286;44.460;26.114;2023-07-20T11:49:27;99629.97;;;35.74;44.34
63190;BME280;49286;44.460;26.114;2023-07-20T11:51:53;99607.59;;;35.78;43.60
63190;BME280;49286;44.460;26.114;2023-07-20T11:54:19;99615.13;;;35.14;44.75
63190;BME280;49286;44.460;26.114;2023-07-20T11:56:44;99610.69;;;34.73;45.20
63190;BME280;49286;44.460;26.114;2023-07-20T11:59:10;99619.78;;;34.49;45.53
63190;BME280;49286;44.460;26.114;2023-07-20T12:01:35;99568.78;;;34.74;46.32
63190;BME280;49286;44.460;26.114;2023-07-20T12:04:03;99616.16;;;34.73;45.62
63190;BME280;49286;44.460;26.114;2023-07-20T12:06:28;99624.94;;;34.92;46.56
63190;BME280;49286;44.460;26.114;2023-07-20T12:08:55;99613.59;;;34.55;46.23
63190;BME280;49286;44.460;26.114;2023-07-20T12:11:34;99630.16;;;34.54;46.97
63190;BME280;49286;44.460;26.114;2023-07-20T12:14:01;99601.59;;;34.33;46.02
63190;BME280;49286;44.460;26.114;2023-07-20T12:16:28;99597.34;;;34.31;45.54
63190;BME280;49286;44.460;26.114;2023-07-20T12:19:10;99616.56;;;34.37;46.11
63190;BME280;49286;44.460;26.114;2023-07-20T12:21:37;99595.28;;;34.08;46.24
63190;BME280;49286;44.460;26.114;2023-07-20T12:24:03;99609.94;;;34.15;47.89
63190;BME280;49286;44.460;26.114;2023-07-20T12:26:30;99604.50;;;34.15;47.46
63190;BME280;49286;44.460;26.114;2023-07-20T12:28:57;99545.91;;;33.29;47.04
63190;BME280;49286;44.460;26.114;2023-07-20T12:31:23;99530.28;;;33.31;48.04
63190;BME280;49286;44.460;26.114;2023-07-20T12:33:53;99595.28;;;34.08;48.13
63190;BME280;49286;44.460;26.114;2023-07-20T12:36:21;99590.03;;;33.90;48.90
63190;BME280;49286;44.460;26.114;2023-07-20T12:38:46;99535.91;;;33.30;50.11
63190;BME280;49286;44.460;26.114;2023-07-20T12:41:13;99608.41;;;33.72;49.81
63190;BME280;49286;44.460;26.114;2023-07-20T12:43:42;99600.75;;;33.59;49.84
63190;BME280;49286;44.460;26.114;2023-07-20T12:46:09;99609.09;;;33.66;50.74
63190;BME280;49286;44.460;26.114;2023-07-20T12:48:35;99595.75;;;33.38;49.05
63190;BME280;49286;44.460;26.114;2023-07-20T12:51:06;99578.25;;;33.40;49.27
63190;BME280;49286;44.460;26.114;2023-07-20T12:53:32;99586.91;;;33.36;48.69